sensor_id;sensor_type;location;lat;lon;timestamp;pressure;altitude;pressure_sealevel;temperature;humidity
7962;BME280;4026;43.652;24.906;2023-03-16T00:02:07;98190.84;;;6.43;100.00
7962;BME280;4026;43.652;24.906;2023-03-16T00:04:34;98195.41;;;6.38;100.00
7962;BME280;4026;43.652;24.906;2023-03-16T00:07:05;98198.66;;;6.40;100.00
7962;BME280;4026;43.652;24.906;2023-03-16T00:09:33;98188.50;;;6.40;100.00
7962;BME280;4026;43.652;24.906;2023-03-16T00:12:01;98197.75;;;6.41;100.00
7962;BME280;4026;43.652;24.906;2023-03-16T00:14:30;98205.22;;;6.43;100.00
7962;BME280;4026;43.652;24.906;2023-03-16T00:17:00;98201.22;;;6.40;100.00
7962;BME280;4026;43.652;24.906;2023-03-16T00:19:28;98195.72;;;6.33;100.00
7962;BME280;4026;43.652;24.906;2023-03-16T00:21:59;98194.19;;;6.31;100.00
7962;BME280;4026;43.652;24.906;2023-03-16T00:24:26;98198.38;;;6.32;100.00
7962;BME280;4026;43.652;24.906;2023-03-16T00:26:53;98203.25;;;6.35;100.00
7962;BME280;4026;43.652;24.906;2023-03-16T00:29:20;98194.91;;;6.33;100.00
7962;BME280;4026;43.652;24.906;2023-03-16T00:31:48;98195.13;;;6.30;100.00
7962;BME280;4026;43.652;24.906;2023-03-16T00:34:14;98190.84;;;6.30;100.00
7962;BME280;4026;43.652;24.906;2023-03-16T00:36:43;98200.22;;;6.30;100.00
7962;BME280;4026;43.652;24.906;2023-03-16T00:39:09;98194.69;;;6.36;100.00
7962;BME280;4026;43.652;24.906;2023-03-16T00:41:36;98198.59;;;6.29;100.00
7962;BME280;4026;43.652;24.906;2023-03-16T00:44:03;98198.81;;;6.26;100.00
7962;BME280;4026;43.652;24.906;2023-03-16T00:46:30;98207.31;;;6.25;100.00
7962;BME280;4026;43.652;24.906;2023-03-16T00:48:57;98208.34;;;6.22;100.00
7962;BME280;4026;43.652;24.906;2023-03-16T00:51:24;98217.38;;;6.26;100.00
7962;BME280;4026;43.652;24.906;2023-03-16T00:53:52;98222.75;;;6.22;100.00
7962;BME280;4026;43.652;24.906;2023-03-16T00:56:19;98234.13;;;6.29;100.00
7962;BME280;4026;43.652;24.906;2023-03-16T00:58:46;98233.91;;;6.32;100.00
7962;BME280;4026;43.652;24.906;2023-03-16T01:01:18;98247.50;;;6.31;100.00
7962;BME280;4026;43.652;24.906;2023-03-16T01:03:45;98251.69;;;6.32;100.00
7962;BME280;4026;43.652;24.906;2023-03-16T01:06:14;98246.09;;;6.27;100.00
7962;BME280;4026;43.652;24.906;2023-03-16T01:08:42;98257.66;;;6.31;100.00
7962;BME280;4026;43.652;24.906;2023-03-16T01:11:13;98252.59;;;6.31;100.00
7962;BME280;4026;43.652;24.906;2023-03-16T01:13:41;98250.97;;;6.30;100.00
7962;BME280;4026;43.652;24.906;2023-03-16T01:16:09;98261.56;;;6.24;100.00
7962;BME280;4026;43.652;24.906;2023-03-16T01:18:36;98262.75;;;6.31;100.00
7962;BME280;4026;43.652;24.906;2023-03-16T01:21:05;98273.91;;;6.41;100.00
7962;BME280;4026;43.652;24.906;2023-03-16T01:23:33;98272.28;;;6.40;100.00
7962;BME280;4026;43.652;24.906;2023-03-16T01:26:00;98273.41;;;6.36;100.00
7962;BME280;4026;43.652;24.906;2023-03-16T01:28:32;98273.69;;;6.44;100.00
7962;BME280;4026;43.652;24.906;2023-03-16T01:31:01;98271.06;;;6.33;100.00
7962;BME280;4026;43.652;24.906;2023-03-16T01:33:28;98266.84;;;6.21;100.00
7962;BME280;4026;43.652;24.906;2023-03-16T01:35:56;98270.09;;;6.23;100.00
7962;BME280;4026;43.652;24.906;2023-03-16T01:38:24;98264.81;;;6.26;100.00
7962;BME280;4026;43.652;24.906;2023-03-16T01:40:52;98266.41;;;6.27;100.00
7962;BME280;4026;43.652;24.906;2023-03-16T01:43:22;98265.38;;;6.42;100.00
7962;BME280;4026;43.652;24.906;2023-03-16T01:46:12;98272.47;;;6.50;100.00
7962;BME280;4026;43.652;24.906;2023-03-16T01:48:45;98277.38;;;6.40;100.00
7962;BME280;4026;43.652;24.906;2023-03-16T01:51:16;98283.69;;;6.34;100.00
7962;BME280;4026;43.652;24.906;2023-03-16T01:53:46;98286.31;;;6.33;100.00
7962;BME280;4026;43.652;24.906;2023-03-16T01:56:16;98290.38;;;6.35;100.00
7962;BME280;4026;43.652;24.906;2023-03-16T01:58:44;98291.38;;;6.33;100.00
7962;BME280;4026;43.652;24.906;2023-03-16T02:01:13;98294.09;;;6.43;100.00
7962;BME280;4026;43.652;24.906;2023-03-16T02:03:42;98295.84;;;6.42;100.00
7962;BME280;4026;43.652;24.906;2023-03-16T02:06:11;98306.50;;;6.47;100.00
7962;BME280;4026;43.652;24.906;2023-03-16T02:08:42;98301.31;;;6.36;100.00
7962;BME280;4026;43.652;24.906;2023-03-16T02:11:11;98302.97;;;6.37;100.00
7962;BME280;4026;43.652;24.906;2023-03-16T02:13:43;98304.59;;;6.38;100.00
7962;BME280;4026;43.652;24.906;2023-03-16T02:16:12;98306.19;;;6.39;100.00
7962;BME280;4026;43.652;24.906;2023-03-16T02:18:44;98310.09;;;6.32;100.00
7962;BME280;4026;43.652;24.906;2023-03-16T02:21:14;98303.44;;;6.42;100.00
7962;BME280;4026;43.652;24.906;2023-03-16T02:23:46;98304.88;;;6.33;100.00
7962;BME280;4026;43.652;24.906;2023-03-16T02:26:21;98303.09;;;6.23;100.00
7962;BME280;4026;43.652;24.906;2023-03-16T02:29:01;98304.19;;;6.19;100.00
7962;BME280;4026;43.652;24.906;2023-03-16T02:31:33;98297.72;;;6.15;100.00
7962;BME280;4026;43.652;24.906;2023-03-16T02:34:00;98304.59;;;6.12;100.00
7962;BME280;4026;43.652;24.906;2023-03-16T02:36:28;98295.78;;;6.05;100.00
7962;BME280;4026;43.652;24.906;2023-03-16T02:38:55;98307.44;;;5.95;100.00
7962;BME280;4026;43.652;24.906;2023-03-16T02:41:22;98307.03;;;6.01;100.00
7962;BME280;4026;43.652;24.906;2023-03-16T02:43:53;98306.81;;;6.04;100.00
7962;BME280;4026;43.652;24.906;2023-03-16T02:46:24;98322.25;;;6.01;100.00
7962;BME280;4026;43.652;24.906;2023-03-16T02:48:58;98326.72;;;6.10;100.00
7962;BME280;4026;43.652;24.906;2023-03-16T02:51:27;98332.09;;;6.19;100.00
7962;BME280;4026;43.652;24.906;2023-03-16T02:53:54;98340.34;;;6.35;100.00
7962;BME280;4026;43.652;24.906;2023-03-16T02:56:21;98346.00;;;6.51;100.00
7962;BME280;4026;43.652;24.906;2023-03-16T02:58:48;98350.25;;;6.51;100.00
7962;BME280;4026;43.652;24.906;2023-03-16T03:01:15;98351.66;;;6.68;100.00
7962;BME280;4026;43.652;24.906;2023-03-16T03:03:42;98360.97;;;6.80;100.00
7962;BME280;4026;43.652;24.906;2023-03-16T03:06:10;98365.44;;;6.89;100.00
7962;BME280;4026;43.652;24.906;2023-03-16T03:08:37;98370.50;;;6.89;100.00
7962;BME280;4026;43.652;24.906;2023-03-16T03:11:04;98360.00;;;6.70;100.00
7962;BME280;4026;43.652;24.906;2023-03-16T03:13:31;98363.66;;;6.66;100.00
7962;BME280;4026;43.652;24.906;2023-03-16T03:15:58;98366.69;;;6.71;100.00
7962;BME280;4026;43.652;24.906;2023-03-16T03:18:26;98359.63;;;6.50;100.00
7962;BME280;4026;43.652;24.906;2023-03-16T03:20:53;98362.25;;;6.36;100.00
7962;BME280;4026;43.652;24.906;2023-03-16T03:23:21;98360.34;;;6.27;100.00
7962;BME280;4026;43.652;24.906;2023-03-16T03:25:48;98365.09;;;6.19;100.00
7962;BME280;4026;43.652;24.906;2023-03-16T03:28:15;98361.66;;;6.07;100.00
7962;BME280;4026;43.652;24.906;2023-03-16T03:30:42;98356.28;;;6.11;100.00
7962;BME280;4026;43.652;24.906;2023-03-16T03:33:09;98361.25;;;6.00;100.00
7962;BME280;4026;43.652;24.906;2023-03-16T03:35:35;98372.00;;;6.04;100.00
7962;BME280;4026;43.652;24.906;2023-03-16T03:38:02;98375.03;;;5.96;100.00
7962;BME280;4026;43.652;24.906;2023-03-16T03:40:30;98378.72;;;5.78;100.00
7962;BME280;4026;43.652;24.906;2023-03-16T03:42:57;98379.63;;;5.77;100.00
7962;BME280;4026;43.652;24.906;2023-03-16T03:45:24;98385.16;;;5.56;100.00
7962;BME280;4026;43.652;24.906;2023-03-16T03:47:51;98388.09;;;5.50;100.00
7962;BME280;4026;43.652;24.906;2023-03-16T03:50:19;98379.94;;;5.45;100.00
7962;BME280;4026;43.652;24.906;2023-03-16T03:52:47;98390.28;;;5.42;100.00
7962;BME280;4026;43.652;24.906;2023-03-16T03:55:14;98405.31;;;5.45;100.00
7962;BME280;4026;43.652;24.906;2023-03-16T03:57:42;98403.50;;;5.47;100.00
7962;BME280;4026;43.652;24.906;2023-03-16T04:00:10;98414.38;;;5.35;100.00
7962;BME280;4026;43.652;24.906;2023-03-16T04:02:38;98418.97;;;5.15;100.00
7962;BME280;4026;43.652;24.906;2023-03-16T04:05:06;98419.47;;;5.20;100.00
7962;BME280;4026;43.652;24.906;2023-03-16T04:07:33;98418.22;;;5.13;100.00
7962;BME280;4026;43.652;24.906;2023-03-16T04:10:00;98420.50;;;5.04;100.00
7962;BME280;4026;43.652;24.906;2023-03-16T04:12:27;98421.34;;;4.90;100.00
7962;BME280;4026;43.652;24.906;2023-03-16T04:14:55;98422.25;;;4.89;100.00
7962;BME280;4026;43.652;24.906;2023-03-16T04:17:22;98427.66;;;4.83;100.00
7962;BME280;4026;43.652;24.906;2023-03-16T04:19:49;98434.38;;;4.84;100.00
7962;BME280;4026;43.652;24.906;2023-03-16T04:22:16;98442.41;;;4.76;100.00
7962;BME280;4026;43.652;24.906;2023-03-16T04:24:43;98445.41;;;4.68;100.00
7962;BME280;4026;43.652;24.906;2023-03-16T04:27:10;98451.34;;;4.67;100.00
7962;BME280;4026;43.652;24.906;2023-03-16T04:29:37;98455.53;;;4.68;100.00
7962;BME280;4026;43.652;24.906;2023-03-16T04:32:06;98461.66;;;4.64;100.00
7962;BME280;4026;43.652;24.906;2023-03-16T04:34:33;98454.41;;;4.58;100.00
7962;BME280;4026;43.652;24.906;2023-03-16T04:37:00;98461.03;;;4.61;100.00
7962;BME280;4026;43.652;24.906;2023-03-16T04:39:27;98464.72;;;4.55;100.00
7962;BME280;4026;43.652;24.906;2023-03-16T04:41:54;98471.34;;;4.58;100.00
7962;BME280;4026;43.652;24.906;2023-03-16T04:44:21;98484.53;;;4.48;100.00
7962;BME280;4026;43.652;24.906;2023-03-16T04:46:50;98481.59;;;4.40;100.00
7962;BME280;4026;43.652;24.906;2023-03-16T04:49:18;98477.34;;;4.41;100.00
7962;BME280;4026;43.652;24.906;2023-03-16T04:51:45;98485.28;;;4.35;100.00
7962;BME280;4026;43.652;24.906;2023-03-16T04:54:12;98486.69;;;4.24;100.00
7962;BME280;4026;43.652;24.906;2023-03-16T04:56:39;98485.44;;;4.17;100.00
7962;BME280;4026;43.652;24.906;2023-03-16T04:59:06;98484.84;;;4.12;100.00
7962;BME280;4026;43.652;24.906;2023-03-16T05:01:33;98497.91;;;4.20;100.00
7962;BME280;4026;43.652;24.906;2023-03-16T05:04:00;98498.09;;;4.01;100.00
7962;BME280;4026;43.652;24.906;2023-03-16T05:06:28;98501.47;;;4.02;100.00
7962;BME280;4026;43.652;24.906;2023-03-16T05:08:58;98510.84;;;4.00;100.00
7962;BME280;4026;43.652;24.906;2023-03-16T05:11:24;98512.88;;;3.93;100.00
7962;BME280;4026;43.652;24.906;2023-03-16T05:13:51;98513.94;;;3.89;100.00
7962;BME280;4026;43.652;24.906;2023-03-16T05:16:18;98513.88;;;3.91;100.00
7962;BME280;4026;43.652;24.906;2023-03-16T05:18:45;98520.97;;;3.84;100.00
7962;BME280;4026;43.652;24.906;2023-03-16T05:21:12;98518.91;;;3.75;100.00
7962;BME280;4026;43.652;24.906;2023-03-16T05:23:40;98518.09;;;3.74;100.00
7962;BME280;4026;43.652;24.906;2023-03-16T05:26:07;98521.13;;;3.65;100.00
7962;BME280;4026;43.652;24.906;2023-03-16T05:28:34;98528.88;;;3.62;100.00
7962;BME280;4026;43.652;24.906;2023-03-16T05:31:01;98528.06;;;3.61;100.00
7962;BME280;4026;43.652;24.906;2023-03-16T05:33:28;98532.31;;;3.61;100.00
7962;BME280;4026;43.652;24.906;2023-03-16T05:35:55;98541.84;;;3.56;100.00
7962;BME280;4026;43.652;24.906;2023-03-16T05:38:23;98541.91;;;3.54;100.00
7962;BME280;4026;43.652;24.906;2023-03-16T05:40:53;98548.25;;;3.46;100.00
7962;BME280;4026;43.652;24.906;2023-03-16T05:43:25;98546.06;;;3.39;100.00
7962;BME280;4026;43.652;24.906;2023-03-16T05:45:53;98553.78;;;3.36;100.00
7962;BME280;4026;43.652;24.906;2023-03-16T05:48:20;98553.47;;;3.43;100.00
7962;BME280;4026;43.652;24.906;2023-03-16T05:50:50;98565.22;;;3.44;100.00
7962;BME280;4026;43.652;24.906;2023-03-16T05:53:18;98563.84;;;3.38;100.00
7962;BME280;4026;43.652;24.906;2023-03-16T05:55:50;98563.56;;;3.43;100.00
7962;BME280;4026;43.652;24.906;2023-03-16T05:58:19;98571.75;;;3.48;100.00
7962;BME280;4026;43.652;24.906;2023-03-16T06:00:46;98569.38;;;3.45;100.00
7962;BME280;4026;43.652;24.906;2023-03-16T06:03:14;98578.75;;;3.43;100.00
7962;BME280;4026;43.652;24.906;2023-03-16T06:05:41;98577.03;;;3.43;100.00
7962;BME280;4026;43.652;24.906;2023-03-16T06:08:08;98580.72;;;3.37;100.00
7962;BME280;4026;43.652;24.906;2023-03-16T06:10:35;98585.88;;;3.34;100.00
7962;BME280;4026;43.652;24.906;2023-03-16T06:13:02;98587.84;;;3.29;100.00
7962;BME280;4026;43.652;24.906;2023-03-16T06:15:31;98597.72;;;3.34;100.00
7962;BME280;4026;43.652;24.906;2023-03-16T06:17:57;98598.63;;;3.33;100.00
7962;BME280;4026;43.652;24.906;2023-03-16T06:20:24;98603.19;;;3.42;100.00
7962;BME280;4026;43.652;24.906;2023-03-16T06:22:51;98605.06;;;3.38;100.00
7962;BME280;4026;43.652;24.906;2023-03-16T06:25:18;98609.47;;;3.35;100.00
7962;BME280;4026;43.652;24.906;2023-03-16T06:27:45;98609.91;;;3.26;100.00
7962;BME280;4026;43.652;24.906;2023-03-16T06:30:14;98613.44;;;3.23;100.00
7962;BME280;4026;43.652;24.906;2023-03-16T06:32:42;98618.03;;;3.32;100.00
7962;BME280;4026;43.652;24.906;2023-03-16T06:35:11;98619.44;;;3.21;100.00
7962;BME280;4026;43.652;24.906;2023-03-16T06:37:38;98618.31;;;3.26;100.00
7962;BME280;4026;43.652;24.906;2023-03-16T06:40:06;98630.06;;;3.27;100.00
7962;BME280;4026;43.652;24.906;2023-03-16T06:42:34;98640.84;;;3.13;100.00
7962;BME280;4026;43.652;24.906;2023-03-16T06:45:01;98635.88;;;3.12;100.00
7962;BME280;4026;43.652;24.906;2023-03-16T06:47:27;98643.34;;;3.13;100.00
7962;BME280;4026;43.652;24.906;2023-03-16T06:49:56;98649.22;;;3.14;100.00
7962;BME280;4026;43.652;24.906;2023-03-16T06:52:23;98655.03;;;3.16;100.00
7962;BME280;4026;43.652;24.906;2023-03-16T06:54:50;98654.28;;;3.14;100.00
7962;BME280;4026;43.652;24.906;2023-03-16T06:57:17;98662.59;;;3.16;100.00
7962;BME280;4026;43.652;24.906;2023-03-16T06:59:44;98671.75;;;3.18;100.00
7962;BME280;4026;43.652;24.906;2023-03-16T07:02:11;98669.00;;;3.23;100.00
7962;BME280;4026;43.652;24.906;2023-03-16T07:04:39;98670.78;;;3.21;100.00
7962;BME280;4026;43.652;24.906;2023-03-16T07:07:08;98676.84;;;3.17;100.00
7962;BME280;4026;43.652;24.906;2023-03-16T07:09:36;98681.63;;;3.06;100.00
7962;BME280;4026;43.652;24.906;2023-03-16T07:12:03;98677.91;;;3.13;100.00
7962;BME280;4026;43.652;24.906;2023-03-16T07:14:30;98676.34;;;3.28;100.00
7962;BME280;4026;43.652;24.906;2023-03-16T07:16:57;98691.13;;;3.18;100.00
7962;BME280;4026;43.652;24.906;2023-03-16T07:19:24;98691.28;;;3.15;100.00
7962;BME280;4026;43.652;24.906;2023-03-16T07:21:51;98694.69;;;3.14;100.00
7962;BME280;4026;43.652;24.906;2023-03-16T07:24:19;98695.91;;;3.24;100.00
7962;BME280;4026;43.652;24.906;2023-03-16T07:26:46;98697.66;;;3.22;100.00
7962;BME280;4026;43.652;24.906;2023-03-16T07:29:13;98705.41;;;3.19;100.00
7962;BME280;4026;43.652;24.906;2023-03-16T07:31:41;98708.22;;;3.30;100.00
7962;BME280;4026;43.652;24.906;2023-03-16T07:34:08;98717.44;;;3.31;100.00
7962;BME280;4026;43.652;24.906;2023-03-16T07:36:36;98716.25;;;3.21;100.00
7962;BME280;4026;43.652;24.906;2023-03-16T07:39:03;98715.81;;;3.30;100.00
7962;BME280;4026;43.652;24.906;2023-03-16T07:41:32;98722.47;;;3.31;100.00
7962;BME280;4026;43.652;24.906;2023-03-16T07:43:59;98729.78;;;3.37;100.00
7962;BME280;4026;43.652;24.906;2023-03-16T07:46:26;98728.88;;;3.38;100.00
7962;BME280;4026;43.652;24.906;2023-03-16T07:48:53;98739.97;;;3.36;100.00
7962;BME280;4026;43.652;24.906;2023-03-16T07:51:19;98741.22;;;3.27;100.00
7962;BME280;4026;43.652;24.906;2023-03-16T07:53:47;98751.03;;;3.33;100.00
7962;BME280;4026;43.652;24.906;2023-03-16T07:56:14;98742.13;;;3.44;100.00
7962;BME280;4026;43.652;24.906;2023-03-16T07:58:42;98744.66;;;3.44;100.00
7962;BME280;4026;43.652;24.906;2023-03-16T08:01:09;98747.47;;;3.37;100.00
7962;BME280;4026;43.652;24.906;2023-03-16T08:03:36;98746.72;;;3.53;100.00
7962;BME280;4026;43.652;24.906;2023-03-16T08:06:03;98759.22;;;3.38;100.00
7962;BME280;4026;43.652;24.906;2023-03-16T08:08:30;98761.66;;;3.40;100.00
7962;BME280;4026;43.652;24.906;2023-03-16T08:10:58;98761.56;;;3.24;100.00
7962;BME280;4026;43.652;24.906;2023-03-16T08:13:25;98768.94;;;3.29;100.00
7962;BME280;4026;43.652;24.906;2023-03-16T08:15:54;98766.03;;;3.36;100.00
7962;BME280;4026;43.652;24.906;2023-03-16T08:18:23;98772.59;;;3.40;100.00
7962;BME280;4026;43.652;24.906;2023-03-16T08:20:51;98778.53;;;3.39;100.00
7962;BME280;4026;43.652;24.906;2023-03-16T08:23:18;98769.53;;;3.51;100.00
7962;BME280;4026;43.652;24.906;2023-03-16T08:25:45;98787.63;;;3.44;100.00
7962;BME280;4026;43.652;24.906;2023-03-16T08:28:13;98779.28;;;3.42;100.00
7962;BME280;4026;43.652;24.906;2023-03-16T08:30:44;98780.25;;;3.39;100.00
7962;BME280;4026;43.652;24.906;2023-03-16T08:33:13;98786.84;;;3.42;100.00
7962;BME280;4026;43.652;24.906;2023-03-16T08:35:42;98793.91;;;3.35;100.00
7962;BME280;4026;43.652;24.906;2023-03-16T08:38:09;98798.28;;;3.31;100.00
7962;BME280;4026;43.652;24.906;2023-03-16T08:40:37;98799.41;;;3.43;100.00
7962;BME280;4026;43.652;24.906;2023-03-16T08:43:06;98799.50;;;3.59;100.00
7962;BME280;4026;43.652;24.906;2023-03-16T08:45:33;98802.69;;;3.62;100.00
7962;BME280;4026;43.652;24.906;2023-03-16T08:48:01;98800.91;;;3.65;100.00
7962;BME280;4026;43.652;24.906;2023-03-16T08:50:30;98800.97;;;3.80;100.00
7962;BME280;4026;43.652;24.906;2023-03-16T08:52:56;98807.69;;;3.47;100.00
7962;BME280;4026;43.652;24.906;2023-03-16T08:55:23;98814.00;;;3.55;100.00
7962;BME280;4026;43.652;24.906;2023-03-16T08:57:50;98808.63;;;3.44;100.00
7962;BME280;4026;43.652;24.906;2023-03-16T09:00:18;98814.56;;;3.43;100.00
7962;BME280;4026;43.652;24.906;2023-03-16T09:02:45;98807.25;;;3.56;100.00
7962;BME280;4026;43.652;24.906;2023-03-16T09:05:13;98808.56;;;3.46;100.00
7962;BME280;4026;43.652;24.906;2023-03-16T09:07:41;98814.66;;;3.42;100.00
7962;BME280;4026;43.652;24.906;2023-03-16T09:10:10;98818.00;;;3.59;100.00
7962;BME280;4026;43.652;24.906;2023-03-16T09:12:39;98825.06;;;3.53;100.00
7962;BME280;4026;43.652;24.906;2023-03-16T09:15:08;98829.66;;;3.45;100.00
7962;BME280;4026;43.652;24.906;2023-03-16T09:17:36;98823.00;;;3.44;100.00
7962;BME280;4026;43.652;24.906;2023-03-16T09:20:04;98823.13;;;3.40;100.00
7962;BME280;4026;43.652;24.906;2023-03-16T09:22:33;98827.19;;;3.43;100.00
7962;BME280;4026;43.652;24.906;2023-03-16T09:25:03;98835.34;;;3.50;100.00
7962;BME280;4026;43.652;24.906;2023-03-16T09:27:31;98833.09;;;3.44;100.00
7962;BME280;4026;43.652;24.906;2023-03-16T09:29:58;98834.28;;;3.54;100.00
7962;BME280;4026;43.652;24.906;2023-03-16T09:32:27;98839.50;;;3.51;100.00
7962;BME280;4026;43.652;24.906;2023-03-16T09:34:54;98842.78;;;3.53;100.00
7962;BME280;4026;43.652;24.906;2023-03-16T09:37:22;98850.66;;;3.64;100.00
7962;BME280;4026;43.652;24.906;2023-03-16T09:39:48;98854.69;;;3.68;100.00
7962;BME280;4026;43.652;24.906;2023-03-16T09:42:19;98854.22;;;3.60;100.00
7962;BME280;4026;43.652;24.906;2023-03-16T09:44:57;98869.94;;;3.67;100.00
7962;BME280;4026;43.652;24.906;2023-03-16T09:47:27;98861.66;;;3.63;100.00
7962;BME280;4026;43.652;24.906;2023-03-16T09:49:56;98867.41;;;3.67;100.00
7962;BME280;4026;43.652;24.906;2023-03-16T09:52:28;98866.88;;;3.77;100.00
7962;BME280;4026;43.652;24.906;2023-03-16T09:55:03;98870.44;;;3.73;100.00
7962;BME280;4026;43.652;24.906;2023-03-16T09:57:36;98873.13;;;3.70;100.00
7962;BME280;4026;43.652;24.906;2023-03-16T10:00:14;98878.63;;;3.78;100.00
7962;BME280;4026;43.652;24.906;2023-03-16T10:03:06;98874.75;;;3.89;100.00
7962;BME280;4026;43.652;24.906;2023-03-16T10:05:38;98877.28;;;3.71;100.00
7962;BME280;4026;43.652;24.906;2023-03-16T10:08:10;98880.72;;;3.88;100.00
7962;BME280;4026;43.652;24.906;2023-03-16T10:10:47;98873.03;;;3.72;100.00
7962;BME280;4026;43.652;24.906;2023-03-16T10:13:26;98872.06;;;3.74;100.00
7962;BME280;4026;43.652;24.906;2023-03-16T10:15:57;98882.19;;;3.74;100.00
7962;BME280;4026;43.652;24.906;2023-03-16T10:18:28;98881.75;;;3.83;100.00
7962;BME280;4026;43.652;24.906;2023-03-16T10:20:58;98877.75;;;3.97;100.00
7962;BME280;4026;43.652;24.906;2023-03-16T10:23:28;98878.56;;;3.97;100.00
7962;BME280;4026;43.652;24.906;2023-03-16T10:25:58;98880.72;;;4.05;100.00
7962;BME280;4026;43.652;24.906;2023-03-16T10:28:28;98882.81;;;3.97;100.00
7962;BME280;4026;43.652;24.906;2023-03-16T10:30:58;98883.47;;;4.00;100.00
7962;BME280;4026;43.652;24.906;2023-03-16T10:33:27;98886.97;;;3.98;100.00
7962;BME280;4026;43.652;24.906;2023-03-16T10:35:58;98879.81;;;3.89;100.00
7962;BME280;4026;43.652;24.906;2023-03-16T10:38:28;98879.97;;;4.03;100.00
7962;BME280;4026;43.652;24.906;2023-03-16T10:40:57;98883.16;;;4.06;100.00
7962;BME280;4026;43.652;24.906;2023-03-16T10:43:26;98888.97;;;3.91;100.00
7962;BME280;4026;43.652;24.906;2023-03-16T10:45:57;98890.69;;;4.08;100.00
7962;BME280;4026;43.652;24.906;2023-03-16T10:48:26;98892.69;;;4.19;100.00
7962;BME280;4026;43.652;24.906;2023-03-16T10:50:55;98885.63;;;4.25;100.00
7962;BME280;4026;43.652;24.906;2023-03-16T10:53:27;98895.75;;;4.08;100.00
7962;BME280;4026;43.652;24.906;2023-03-16T10:55:58;98895.91;;;4.05;100.00
7962;BME280;4026;43.652;24.906;2023-03-16T10:58:31;98896.25;;;4.15;100.00
7962;BME280;4026;43.652;24.906;2023-03-16T11:00:58;98899.31;;;4.04;100.00
7962;BME280;4026;43.652;24.906;2023-03-16T11:03:28;98896.25;;;3.97;100.00
7962;BME280;4026;43.652;24.906;2023-03-16T11:05:58;98897.47;;;4.07;100.00
7962;BME280;4026;43.652;24.906;2023-03-16T11:08:30;98886.09;;;3.99;100.00
7962;BME280;4026;43.652;24.906;2023-03-16T11:10:59;98891.41;;;4.10;100.00
7962;BME280;4026;43.652;24.906;2023-03-16T11:13:32;98891.00;;;4.02;100.00
7962;BME280;4026;43.652;24.906;2023-03-16T11:16:03;98885.09;;;4.19;100.00
7962;BME280;4026;43.652;24.906;2023-03-16T11:18:35;98880.31;;;4.30;100.00
7962;BME280;4026;43.652;24.906;2023-03-16T11:21:08;98881.44;;;4.24;100.00
7962;BME280;4026;43.652;24.906;2023-03-16T11:23:42;98881.00;;;4.34;100.00
7962;BME280;4026;43.652;24.906;2023-03-16T11:26:19;98887.25;;;4.26;100.00
7962;BME280;4026;43.652;24.906;2023-03-16T11:28:52;98886.81;;;4.18;100.00
7962;BME280;4026;43.652;24.906;2023-03-16T11:31:36;98891.19;;;4.15;100.00
7962;BME280;4026;43.652;24.906;2023-03-16T11:34:13;98891.00;;;4.02;100.00
7962;BME280;4026;43.652;24.906;2023-03-16T11:36:48;98889.19;;;4.04;100.00
7962;BME280;4026;43.652;24.906;2023-03-16T11:39:27;98889.34;;;4.18;100.00
7962;BME280;4026;43.652;24.906;2023-03-16T11:42:07;98889.34;;;4.18;100.00
7962;BME280;4026;43.652;24.906;2023-03-16T11:44:42;98894.94;;;4.25;100.00
7962;BME280;4026;43.652;24.906;2023-03-16T11:47:25;98905.72;;;4.11;100.00
7962;BME280;4026;43.652;24.906;2023-03-16T11:49:59;98895.75;;;4.08;100.00
7962;BME280;4026;43.652;24.906;2023-03-16T11:52:37;98902.59;;;4.06;100.00
7962;BME280;4026;43.652;24.906;2023-03-16T11:55:20;98900.00;;;4.07;100.00
7962;BME280;4026;43.652;24.906;2023-03-16T11:57:59;98904.81;;;4.12;100.00
7962;BME280;4026;43.652;24.906;2023-03-16T12:00:41;98909.41;;;4.21;100.00
7962;BME280;4026;43.652;24.906;2023-03-16T12:03:30;98909.41;;;4.21;100.00
7962;BME280;4026;43.652;24.906;2023-03-16T12:06:04;98902.44;;;4.26;100.00
7962;BME280;4026;43.652;24.906;2023-03-16T12:09:01;98910.03;;;4.26;100.00
7962;BME280;4026;43.652;24.906;2023-03-16T12:11:34;98906.38;;;4.15;100.00
7962;BME280;4026;43.652;24.906;2023-03-16T12:14:13;98913.75;;;4.19;100.00
7962;BME280;4026;43.652;24.906;2023-03-16T12:16:47;98910.47;;;4.35;100.00
7962;BME280;4026;43.652;24.906;2023-03-16T12:19:21;98913.47;;;4.25;100.00
7962;BME280;4026;43.652;24.906;2023-03-16T12:21:58;98916.94;;;4.23;100.00
7962;BME280;4026;43.652;24.906;2023-03-16T12:24:34;98921.88;;;4.26;100.00
7962;BME280;4026;43.652;24.906;2023-03-16T12:27:04;98929.47;;;4.26;100.00
7962;BME280;4026;43.652;24.906;2023-03-16T12:29:37;98924.53;;;4.23;100.00
7962;BME280;4026;43.652;24.906;2023-03-16T12:32:12;98919.47;;;4.23;100.00
7962;BME280;4026;43.652;24.906;2023-03-16T12:34:46;98925.22;;;4.26;100.00
7962;BME280;4026;43.652;24.906;2023-03-16T12:37:23;98927.59;;;4.29;100.00
7962;BME280;4026;43.652;24.906;2023-03-16T12:40:02;98928.34;;;4.31;100.00
7962;BME280;4026;43.652;24.906;2023-03-16T12:42:46;98933.09;;;4.38;100.00
7962;BME280;4026;43.652;24.906;2023-03-16T12:45:17;98931.91;;;4.27;100.00
7962;BME280;4026;43.652;24.906;2023-03-16T12:47:57;98931.47;;;4.37;100.00
7962;BME280;4026;43.652;24.906;2023-03-16T12:50:28;98939.78;;;4.39;100.00
7962;BME280;4026;43.652;24.906;2023-03-16T12:52:55;98932.28;;;4.37;100.00
7962;BME280;4026;43.652;24.906;2023-03-16T12:55:24;98935.63;;;4.38;100.00
7962;BME280;4026;43.652;24.906;2023-03-16T12:57:58;98932.94;;;4.41;100.00
7962;BME280;4026;43.652;24.906;2023-03-16T13:00:34;98935.03;;;4.32;100.00
7962;BME280;4026;43.652;24.906;2023-03-16T13:03:04;98934.41;;;4.45;100.00
7962;BME280;4026;43.652;24.906;2023-03-16T13:05:33;98945.88;;;4.52;100.00
7962;BME280;4026;43.652;24.906;2023-03-16T13:08:06;98935.97;;;4.65;100.00
7962;BME280;4026;43.652;24.906;2023-03-16T13:10:34;98948.28;;;4.55;100.00
7962;BME280;4026;43.652;24.906;2023-03-16T13:13:12;98954.66;;;4.45;100.00
7962;BME280;4026;43.652;24.906;2023-03-16T13:15:40;98950.94;;;4.52;100.00
7962;BME280;4026;43.652;24.906;2023-03-16T13:18:21;98962.03;;;4.49;100.00
7962;BME280;4026;43.652;24.906;2023-03-16T13:20:52;98966.28;;;4.49;100.00
7962;BME280;4026;43.652;24.906;2023-03-16T13:23:23;98965.09;;;4.56;100.00